Time,TemperatureF,DewpointF,PressureIn,WindDirection,WindDirectionDegrees,WindSpeedMPH,WindSpeedGustMPH,Humidity,HourlyPrecipIn,Conditions,Clouds,dailyrainin,SoftwareType,DateUTC
2013-04-21 00:02:00,53.0,36.0,30.26,ENE,63,1.0,-999.0,53,-99.99,,,-99.99,,2013-04-21 05:02:00,
2013-04-21 00:12:00,53.0,36.0,30.26,ENE,63,1.0,-999.0,53,-99.99,,,-99.99,,2013-04-21 05:12:00,
2013-04-21 00:22:00,52.0,36.0,30.27,ENE,61,0.0,-999.0,54,-99.99,,,-99.99,,2013-04-21 05:22:00,
2013-04-21 00:32:00,51.0,36.0,30.27,ENE,59,0.0,-999.0,56,-99.99,,,-99.99,,2013-04-21 05:32:00,
2013-04-21 00:42:00,51.0,36.0,30.27,ENE,59,0.0,-999.0,56,-99.99,,,-99.99,,2013-04-21 05:42:00,
2013-04-21 00:52:00,51.0,36.0,30.27,ENE,59,0.0,-999.0,57,-99.99,,,-99.99,,2013-04-21 05:52:00,
2013-04-21 01:01:00,51.0,37.0,30.27,ENE,58,0.0,-999.0,58,-99.99,,,-99.99,,2013-04-21 06:01:00,
2013-04-21 01:12:00,51.0,37.0,30.27,ENE,58,0.0,-999.0,58,-99.99,,,-99.99,,2013-04-21 06:12:00,
2013-04-21 01:21:00,50.0,36.0,30.27,ENE,63,0.0,-999.0,58,-99.99,,,-99.99,,2013-04-21 06:21:00,
2013-04-21 01:32:00,50.0,36.0,30.27,NE,51,0.0,-999.0,58,-99.99,,,-99.99,,2013-04-21 06:32:00,
2013-04-21 01:42:00,50.0,36.0,30.27,NE,51,0.0,-999.0,58,-99.99,,,-99.99,,2013-04-21 06:42:00,
2013-04-21 01:52:00,51.0,35.0,30.27,East,86,4.0,-999.0,54,-99.99,,,-99.99,,2013-04-21 06:52:00,
2013-04-21 02:01:00,51.0,35.0,30.27,ENE,62,3.0,-999.0,54,-99.99,,,-99.99,,2013-04-21 07:01:00,
2013-04-21 02:11:00,51.0,35.0,30.28,ENE,78,3.0,-999.0,55,-99.99,,,-99.99,,2013-04-21 07:11:00,
2013-04-21 02:21:00,51.0,35.0,30.28,ENE,78,3.0,-999.0,55,-99.99,,,-99.99,,2013-04-21 07:21:00,
2013-04-21 02:31:00,51.0,35.0,30.28,East,98,4.0,-999.0,55,-99.99,,,-99.99,,2013-04-21 07:31:00,
2013-04-21 02:41:00,51.0,35.0,30.28,East,98,4.0,-999.0,55,-99.99,,,-99.99,,2013-04-21 07:41:00,
2013-04-21 02:52:00,51.0,35.0,30.28,East,100,3.0,-999.0,55,-99.99,,,-99.99,,2013-04-21 07:52:00,
2013-04-21 03:01:00,51.0,36.0,30.28,East,80,3.0,-999.0,56,-99.99,,,-99.99,,2013-04-21 08:01:00,
2013-04-21 03:12:00,50.0,35.0,30.28,East,87,3.0,-999.0,57,-99.99,,,-99.99,,2013-04-21 08:12:00,
2013-04-21 03:21:00,50.0,35.0,30.28,East,87,3.0,-999.0,57,-99.99,,,-99.99,,2013-04-21 08:21:00,
2013-04-21 03:32:00,50.0,35.0,30.28,East,79,2.0,-999.0,57,-99.99,,,-99.99,,2013-04-21 08:32:00,
2013-04-21 03:41:00,50.0,35.0,30.28,East,79,2.0,-999.0,57,-99.99,,,-99.99,,2013-04-21 08:41:00,
2013-04-21 03:52:00,50.0,35.0,30.28,East,96,3.0,-999.0,57,-99.99,,,-99.99,,2013-04-21 08:52:00,
2013-04-21 04:01:00,50.0,35.0,30.28,East,99,3.0,-999.0,57,-99.99,,,-99.99,,2013-04-21 09:01:00,
2013-04-21 04:12:00,50.0,35.0,30.28,East,99,3.0,-999.0,57,-99.99,,,-99.99,,2013-04-21 09:12:00,
2013-04-21 04:21:00,49.0,34.0,30.28,ESE,104,4.0,-999.0,56,-99.99,,,-99.99,,2013-04-21 09:21:00,
2013-04-21 04:32:00,49.0,34.0,30.28,ESE,104,4.0,-999.0,56,-99.99,,,-99.99,,2013-04-21 09:32:00,
2013-04-21 04:43:00,49.0,34.0,30.28,ESE,104,4.0,-999.0,56,-99.99,,,-99.99,,2013-04-21 09:43:00,
2013-04-21 04:53:00,49.0,34.0,30.28,East,97,4.0,-999.0,55,-99.99,,,-99.99,,2013-04-21 09:53:00,
2013-04-21 05:02:00,49.0,34.0,30.28,East,88,4.0,-999.0,55,-99.99,,,-99.99,,2013-04-21 10:02:00,
2013-04-21 05:12:00,49.0,34.0,30.28,East,88,4.0,-999.0,55,-99.99,,,-99.99,,2013-04-21 10:12:00,
2013-04-21 05:22:00,49.0,34.0,30.29,East,84,4.0,-999.0,55,-99.99,,,-99.99,,2013-04-21 10:22:00,
2013-04-21 05:32:00,49.0,34.0,30.29,East,96,4.0,-999.0,55,-99.99,,,-99.99,,2013-04-21 10:32:00,
2013-04-21 05:42:00,49.0,34.0,30.29,East,96,4.0,-999.0,55,-99.99,,,-99.99,,2013-04-21 10:42:00,
2013-04-21 05:52:00,49.0,34.0,30.29,ESE,103,4.0,-999.0,56,-99.99,,,-99.99,,2013-04-21 10:52:00,
2013-04-21 06:02:00,49.0,34.0,30.29,East,85,4.0,-999.0,56,-99.99,,,-99.99,,2013-04-21 11:02:00,
2013-04-21 06:12:00,49.0,34.0,30.29,East,85,4.0,-999.0,56,-99.99,,,-99.99,,2013-04-21 11:12:00,
2013-04-21 06:22:00,49.0,34.0,30.30,NE,55,3.0,-999.0,57,-99.99,,,-99.99,,2013-04-21 11:22:00,
2013-04-21 06:34:00,48.0,34.0,30.31,NE,46,1.0,-999.0,59,-99.99,,,-99.99,,2013-04-21 11:34:00,
2013-04-21 06:42:00,48.0,34.0,30.31,NE,46,1.0,-999.0,59,-99.99,,,-99.99,,2013-04-21 11:42:00,
2013-04-21 06:52:00,47.0,34.0,30.32,ENE,59,2.0,-999.0,60,-99.99,,,-99.99,,2013-04-21 11:52:00,
2013-04-21 07:02:00,47.0,34.0,30.32,East,80,2.0,-999.0,60,-99.99,,,-99.99,,2013-04-21 12:02:00,
2013-04-21 07:12:00,48.0,34.0,30.33,ENE,61,2.0,-999.0,58,-99.99,,,-99.99,,2013-04-21 12:12:00,
2013-04-21 07:22:00,48.0,34.0,30.33,ENE,61,2.0,-999.0,58,-99.99,,,-99.99,,2013-04-21 12:22:00,
2013-04-21 07:32:00,49.0,35.0,30.34,NE,56,2.0,-999.0,58,-99.99,,,-99.99,,2013-04-21 12:32:00,
2013-04-21 07:42:00,49.0,35.0,30.34,NE,56,2.0,-999.0,58,-99.99,,,-99.99,,2013-04-21 12:42:00,
2013-04-21 07:52:00,50.0,34.0,30.34,ENE,78,4.0,-999.0,54,-99.99,,,-99.99,,2013-04-21 12:52:00,
2013-04-21 08:01:00,50.0,34.0,30.35,East,85,4.0,-999.0,53,-99.99,,,-99.99,,2013-04-21 13:01:00,
2013-04-21 08:11:00,50.0,34.0,30.35,East,85,4.0,-999.0,53,-99.99,,,-99.99,,2013-04-21 13:11:00,
2013-04-21 08:21:00,51.0,33.0,30.35,East,92,5.0,-999.0,50,-99.99,,,-99.99,,2013-04-21 13:21:00,
2013-04-21 08:32:00,52.0,34.0,30.35,East,101,5.0,-999.0,50,-99.99,,,-99.99,,2013-04-21 13:32:00,
2013-04-21 08:42:00,52.0,34.0,30.35,East,101,5.0,-999.0,50,-99.99,,,-99.99,,2013-04-21 13:42:00,
2013-04-21 08:52:00,52.0,33.0,30.35,ESE,112,3.0,-999.0,48,-99.99,,,-99.99,,2013-04-21 13:52:00,
2013-04-21 09:02:00,53.0,34.0,30.35,East,99,3.0,-999.0,48,-99.99,,,-99.99,,2013-04-21 14:02:00,
2013-04-21 09:11:00,53.0,34.0,30.35,East,99,3.0,-999.0,48,-99.99,,,-99.99,,2013-04-21 14:11:00,
2013-04-21 09:21:00,53.0,34.0,30.36,East,86,4.0,-999.0,48,-99.99,,,-99.99,,2013-04-21 14:21:00,
2013-04-21 09:32:00,54.0,34.0,30.36,NE,47,4.0,-999.0,47,-99.99,,,-99.99,,2013-04-21 14:32:00,
2013-04-21 09:42:00,54.0,34.0,30.36,NE,47,4.0,-999.0,47,-99.99,,,-99.99,,2013-04-21 14:42:00,
2013-04-21 09:52:00,55.0,35.0,30.36,East,99,4.0,-999.0,46,-99.99,,,-99.99,,2013-04-21 14:52:00,
2013-04-21 10:02:00,55.0,35.0,30.36,East,82,4.0,-999.0,46,-99.99,,,-99.99,,2013-04-21 15:02:00,
2013-04-21 10:11:00,55.0,35.0,30.36,East,82,4.0,-999.0,46,-99.99,,,-99.99,,2013-04-21 15:11:00,
2013-04-21 10:22:00,57.0,36.0,30.36,East,96,4.0,-999.0,46,-99.99,,,-99.99,,2013-04-21 15:22:00,
2013-04-21 10:33:00,57.0,36.0,30.36,ENE,64,3.0,-999.0,45,-99.99,,,-99.99,,2013-04-21 15:33:00,
2013-04-21 10:42:00,57.0,36.0,30.36,ENE,64,3.0,-999.0,45,-99.99,,,-99.99,,2013-04-21 15:42:00,
2013-04-21 10:53:00,58.0,37.0,30.36,East,83,4.0,-999.0,45,-99.99,,,-99.99,,2013-04-21 15:53:00,
2013-04-21 11:03:00,59.0,37.0,30.35,NE,48,3.0,-999.0,43,-99.99,,,-99.99,,2013-04-21 16:03:00,
2013-04-21 11:12:00,59.0,37.0,30.35,NE,48,3.0,-999.0,43,-99.99,,,-99.99,,2013-04-21 16:12:00,
2013-04-21 11:22:00,58.0,35.0,30.35,East,88,5.0,-999.0,42,-99.99,,,-99.99,,2013-04-21 16:22:00,
2013-04-21 11:33:00,59.0,35.0,30.35,ENE,64,3.0,-999.0,41,-99.99,,,-99.99,,2013-04-21 16:33:00,
2013-04-21 11:42:00,59.0,35.0,30.35,ENE,64,3.0,-999.0,41,-99.99,,,-99.99,,2013-04-21 16:42:00,
2013-04-21 11:52:00,59.0,35.0,30.35,NE,56,2.0,-999.0,41,-99.99,,,-99.99,,2013-04-21 16:52:00,
2013-04-21 12:02:00,61.0,37.0,30.35,NE,56,3.0,-999.0,41,-99.99,,,-99.99,,2013-04-21 17:02:00,
2013-04-21 12:12:00,61.0,33.0,30.34,ENE,74,7.0,-999.0,35,-99.99,,,-99.99,,2013-04-21 17:12:00,
2013-04-21 12:23:00,61.0,33.0,30.34,ENE,74,7.0,-999.0,35,-99.99,,,-99.99,,2013-04-21 17:23:00,
2013-04-21 12:32:00,62.0,35.0,30.33,ESE,105,3.0,-999.0,36,-99.99,,,-99.99,,2013-04-21 17:32:00,
2013-04-21 12:42:00,62.0,35.0,30.33,ESE,105,3.0,-999.0,36,-99.99,,,-99.99,,2013-04-21 17:42:00,
2013-04-21 12:52:00,62.0,35.0,30.32,ESE,103,3.0,-999.0,36,-99.99,,,-99.99,,2013-04-21 17:52:00,
2013-04-21 13:02:00,62.0,35.0,30.32,East,80,3.0,-999.0,37,-99.99,,,-99.99,,2013-04-21 18:02:00,
2013-04-21 13:11:00,62.0,35.0,30.32,East,80,3.0,-999.0,37,-99.99,,,-99.99,,2013-04-21 18:11:00,
2013-04-21 13:22:00,63.0,34.0,30.31,ENE,71,3.0,-999.0,34,-99.99,,,-99.99,,2013-04-21 18:22:00,
2013-04-21 13:32:00,63.0,35.0,30.30,ENE,74,3.0,-999.0,35,-99.99,,,-99.99,,2013-04-21 18:32:00,
2013-04-21 13:42:00,63.0,35.0,30.30,ENE,74,3.0,-999.0,35,-99.99,,,-99.99,,2013-04-21 18:42:00,
2013-04-21 13:52:00,65.0,36.0,30.29,NE,52,4.0,-999.0,34,-99.99,,,-99.99,,2013-04-21 18:52:00,
2013-04-21 14:02:00,64.0,35.0,30.29,NE,43,7.0,-999.0,34,-99.99,,,-99.99,,2013-04-21 19:02:00,
2013-04-21 14:12:00,64.0,35.0,30.29,NE,43,7.0,-999.0,34,-99.99,,,-99.99,,2013-04-21 19:12:00,
2013-04-21 14:21:00,65.0,34.0,30.28,ENE,68,7.0,-999.0,32,-99.99,,,-99.99,,2013-04-21 19:21:00,
2013-04-21 14:32:00,65.0,35.0,30.27,ENE,78,8.0,-999.0,33,-99.99,,,-99.99,,2013-04-21 19:32:00,
2013-04-21 14:42:00,65.0,35.0,30.27,ENE,78,8.0,-999.0,33,-99.99,,,-99.99,,2013-04-21 19:42:00,
2013-04-21 14:52:00,65.0,34.0,30.26,NNE,19,8.0,-999.0,32,-99.99,,,-99.99,,2013-04-21 19:52:00,
2013-04-21 15:02:00,66.0,34.0,30.26,NE,52,8.0,-999.0,30,-99.99,,,-99.99,,2013-04-21 20:02:00,
2013-04-21 15:11:00,66.0,34.0,30.26,NE,52,8.0,-999.0,30,-99.99,,,-99.99,,2013-04-21 20:11:00,
2013-04-21 15:22:00,64.0,32.0,30.25,NE,48,8.0,-999.0,30,-99.99,,,-99.99,,2013-04-21 20:22:00,
2013-04-21 15:32:00,64.0,34.0,30.25,East,80,7.0,-999.0,33,-99.99,,,-99.99,,2013-04-21 20:32:00,
2013-04-21 15:42:00,64.0,34.0,30.25,East,80,7.0,-999.0,33,-99.99,,,-99.99,,2013-04-21 20:42:00,
2013-04-21 15:52:00,65.0,36.0,30.23,ENE,78,7.0,-999.0,34,-99.99,,,-99.99,,2013-04-21 20:52:00,
2013-04-21 16:02:00,65.0,35.0,30.23,ENE,64,6.0,-999.0,33,-99.99,,,-99.99,,2013-04-21 21:02:00,
2013-04-21 16:12:00,66.0,38.0,30.22,NE,49,6.0,-999.0,35,-99.99,,,-99.99,,2013-04-21 21:12:00,
2013-04-21 16:21:00,66.0,38.0,30.22,NE,49,6.0,-999.0,35,-99.99,,,-99.99,,2013-04-21 21:21:00,
2013-04-21 16:33:00,66.0,35.0,30.22,NE,42,6.0,-999.0,32,-99.99,,,-99.99,,2013-04-21 21:33:00,
2013-04-21 16:43:00,66.0,35.0,30.22,NE,42,6.0,-999.0,32,-99.99,,,-99.99,,2013-04-21 21:43:00,
2013-04-21 16:53:00,65.0,37.0,30.21,NNE,25,8.0,-999.0,36,-99.99,,,-99.99,,2013-04-21 21:53:00,
2013-04-21 17:02:00,65.0,37.0,30.21,ENE,72,6.0,-999.0,36,-99.99,,,-99.99,,2013-04-21 22:02:00,
2013-04-21 17:12:00,65.0,37.0,30.22,NE,42,6.0,-999.0,35,-99.99,,,-99.99,,2013-04-21 22:12:00,
2013-04-21 17:22:00,65.0,37.0,30.22,NE,42,6.0,-999.0,35,-99.99,,,-99.99,,2013-04-21 22:22:00,
2013-04-21 17:33:00,65.0,37.0,30.22,NE,35,3.0,-999.0,36,-99.99,,,-99.99,,2013-04-21 22:33:00,
2013-04-21 17:43:00,65.0,37.0,30.22,NE,35,3.0,-999.0,36,-99.99,,,-99.99,,2013-04-21 22:43:00,
2013-04-21 17:52:00,64.0,36.0,30.22,NE,55,5.0,-999.0,35,-99.99,,,-99.99,,2013-04-21 22:52:00,
2013-04-21 18:02:00,65.0,35.0,30.22,ENE,71,4.0,-999.0,33,-99.99,,,-99.99,,2013-04-21 23:02:00,
2013-04-21 18:12:00,65.0,35.0,30.22,ENE,71,4.0,-999.0,33,-99.99,,,-99.99,,2013-04-21 23:12:00,
2013-04-21 18:22:00,65.0,33.0,30.21,East,88,7.0,-999.0,30,-99.99,,,-99.99,,2013-04-21 23:22:00,
2013-04-21 18:32:00,65.0,34.0,30.21,NE,44,6.0,-999.0,31,-99.99,,,-99.99,,2013-04-21 23:32:00,
2013-04-21 18:42:00,65.0,34.0,30.21,NE,44,6.0,-999.0,31,-99.99,,,-99.99,,2013-04-21 23:42:00,
2013-04-21 18:52:00,64.0,32.0,30.21,East,80,5.0,-999.0,30,-99.99,,,-99.99,,2013-04-21 23:52:00,
2013-04-21 19:01:00,64.0,33.0,30.21,East,82,4.0,-999.0,31,-99.99,,,-99.99,,2013-04-22 00:01:00,
2013-04-21 19:11:00,64.0,33.0,30.21,East,82,4.0,-999.0,31,-99.99,,,-99.99,,2013-04-22 00:11:00,
2013-04-21 19:21:00,64.0,33.0,30.20,ENE,57,3.0,-999.0,31,-99.99,,,-99.99,,2013-04-22 00:21:00,
2013-04-21 19:32:00,63.0,32.0,30.20,ENE,58,3.0,-999.0,31,-99.99,,,-99.99,,2013-04-22 00:32:00,
2013-04-21 19:42:00,63.0,32.0,30.20,ENE,58,3.0,-999.0,31,-99.99,,,-99.99,,2013-04-22 00:42:00,
2013-04-21 19:52:00,63.0,33.0,30.21,ENE,71,0.0,-999.0,32,-99.99,,,-99.99,,2013-04-22 00:52:00,
2013-04-21 20:01:00,62.0,34.0,30.21,ENE,62,0.0,-999.0,35,-99.99,,,-99.99,,2013-04-22 01:01:00,
2013-04-21 20:12:00,62.0,34.0,30.21,ENE,62,0.0,-999.0,35,-99.99,,,-99.99,,2013-04-22 01:12:00,
2013-04-21 20:21:00,61.0,35.0,30.21,ENE,61,0.0,-999.0,38,-99.99,,,-99.99,,2013-04-22 01:21:00,
2013-04-21 20:32:00,60.0,35.0,30.21,NE,52,0.0,-999.0,39,-99.99,,,-99.99,,2013-04-22 01:32:00,
2013-04-21 20:41:00,60.0,35.0,30.21,NE,52,0.0,-999.0,39,-99.99,,,-99.99,,2013-04-22 01:41:00,
2013-04-21 20:52:00,59.0,37.0,30.21,NE,52,0.0,-999.0,43,-99.99,,,-99.99,,2013-04-22 01:52:00,
2013-04-21 21:02:00,59.0,37.0,30.21,NE,53,0.0,-999.0,44,-99.99,,,-99.99,,2013-04-22 02:02:00,
2013-04-21 21:11:00,59.0,37.0,30.21,NE,53,0.0,-999.0,44,-99.99,,,-99.99,,2013-04-22 02:11:00,
2013-04-21 21:21:00,58.0,37.0,30.22,NE,44,0.0,-999.0,46,-99.99,,,-99.99,,2013-04-22 02:21:00,
2013-04-21 21:32:00,57.0,38.0,30.22,NE,44,0.0,-999.0,48,-99.99,,,-99.99,,2013-04-22 02:32:00,
2013-04-21 21:42:00,57.0,38.0,30.22,NE,44,0.0,-999.0,48,-99.99,,,-99.99,,2013-04-22 02:42:00,
2013-04-21 21:52:00,57.0,38.0,30.22,NE,44,0.0,-999.0,49,-99.99,,,-99.99,,2013-04-22 02:52:00,
2013-04-21 22:02:00,57.0,38.0,30.22,NE,44,0.0,-999.0,49,-99.99,,,-99.99,,2013-04-22 03:02:00,
2013-04-21 22:11:00,57.0,38.0,30.22,NE,44,0.0,-999.0,49,-99.99,,,-99.99,,2013-04-22 03:11:00,
2013-04-21 22:22:00,56.0,37.0,30.22,NE,56,0.0,-999.0,49,-99.99,,,-99.99,,2013-04-22 03:22:00,
2013-04-21 22:33:00,57.0,37.0,30.22,ENE,61,0.0,-999.0,47,-99.99,,,-99.99,,2013-04-22 03:33:00,
2013-04-21 22:42:00,57.0,37.0,30.22,ENE,61,0.0,-999.0,47,-99.99,,,-99.99,,2013-04-22 03:42:00,
2013-04-21 22:52:00,57.0,35.0,30.22,ENE,57,0.0,-999.0,43,-99.99,,,-99.99,,2013-04-22 03:52:00,
2013-04-21 23:02:00,57.0,34.0,30.22,ENE,72,0.0,-999.0,42,-99.99,,,-99.99,,2013-04-22 04:02:00,
2013-04-21 23:12:00,57.0,34.0,30.22,ENE,72,0.0,-999.0,42,-99.99,,,-99.99,,2013-04-22 04:12:00,
2013-04-21 23:23:00,57.0,34.0,30.22,ENE,76,1.0,-999.0,41,-99.99,,,-99.99,,2013-04-22 04:23:00,
2013-04-21 23:32:00,57.0,34.0,30.22,ENE,72,1.0,-999.0,41,-99.99,,,-99.99,,2013-04-22 04:32:00,
2013-04-21 23:43:00,57.0,34.0,30.22,ENE,72,1.0,-999.0,41,-99.99,,,-99.99,,2013-04-22 04:43:00,
2013-04-21 23:53:00,57.0,33.0,30.22,East,101,1.0,-999.0,40,-99.99,,,-99.99,,2013-04-22 04:53:00,